Strona główna
METAR-TAF:

METAR-TAF

Lotnisko :

Doylestown Airport

Doylestown, Pensylwania, Stany Zjednoczone

Szerokość geograficzna: 40-19-48N, Długość geograficzna: 075-07-21W, wysokość: 120 m

Aktualna obserwacja pogody

Raport powstał 54 minut temu, godzina 02:54 UTC
Wiatr 7 kt od północno-północny zachód
Temperatura 9°C
Wilgotność 76%
Ciśnienie 1012 hPa
Widzialność: 16.1 km
Przerywane chmury na wysokości 3600 ft
Zachmurzenie całkowite na wysokości 9000 ft

METAR: KDYL 040254Z AUTO 34007KT 10SM BKN036 OVC090 09/05 A2987 RMK AO2 SLP117 60002 T00940050 51013

czas: 23:48 (03:48 UTC)


TAF: brakujący

Obserwacja i prognoza pogody dla ponad 4000 lotnisk (raport METAR i TAF).

Dostępne stacje oznaczono żółtymi i czerwonymi punktami na mapie.

Najedź kursorem aby zobaczyć nazwę stacji.

Kliknij aby zobaczyć obserwacje i prognozy pogody.

Aby zmienić mapę: kliknij na zielony przycisk z czarnym krzyżykiem, aby powiększyć; na zielony przycisk z myślnikiem, aby pomniejszyć; na zielone strzałki, aby przejść do map sąsiednich.


METAR-TAF: